Time;durP1;ratioP1;P1;durP2;ratioP2;P2;SDS_P1;SDS_P2;PMS_P1;PMS_P2;Temp;Humidity;BMP_temperature;BMP_pressure;BME280_temperature;BME280_humidity;BME280_pressure;Samples;Min_cycle;Max_cycle;Signal;HPM_P1;HPM_P2
2022/01/16 00:00:47;;;;;;;96.68;29.48;;;;;;;6.53;100.00;102228.28;5041021;28;20035;-59
2022/01/16 00:05:57;;;;;;;101.53;30.85;;;;;;;6.50;100.00;102225.88;5046410;28;20048;-57
2022/01/16 00:08:23;;;;;;;90.03;30.75;;;;;;;6.73;100.00;102218.53;5041024;28;20052;-59
2022/01/16 00:10:49;;;;;;;97.40;31.97;;;;;;;6.80;100.00;102224.16;5058249;28;20431;-57
2022/01/16 00:13:14;;;;;;;94.05;31.95;;;;;;;6.94;100.00;102226.44;5059322;28;20269;-59
2022/01/16 00:15:44;;;;;;;90.97;27.92;;;;;;;6.62;100.00;102238.09;5057965;28;20041;-56
2022/01/16 00:18:25;;;;;;;85.88;30.08;;;;;;;6.76;100.00;102247.50;5057178;28;20052;-57
2022/01/16 00:20:52;;;;;;;93.97;29.58;;;;;;;6.86;100.00;102228.91;5058354;28;20045;-58
2022/01/16 00:23:24;;;;;;;92.88;32.28;;;;;;;7.03;100.00;102230.91;5075318;28;20111;-57
2022/01/16 00:25:56;;;;;;;99.70;28.95;;;;;;;6.50;100.00;102233.84;5040469;28;20509;-57
2022/01/16 00:28:23;;;;;;;102.82;29.92;;;;;;;6.74;100.00;102231.69;5057304;28;20460;-61
2022/01/16 00:30:50;;;;;;;101.30;31.92;;;;;;;6.63;100.00;102233.63;5039816;28;20055;-61
2022/01/16 00:33:17;;;;;;;108.65;31.27;;;;;;;6.61;100.00;102215.13;5039989;28;20527;-54
2022/01/16 00:35:42;;;;;;;120.95;30.90;;;;;;;6.77;100.00;102229.75;5056998;28;20047;-59
2022/01/16 00:38:08;;;;;;;111.07;32.15;;;;;;;6.64;100.00;102230.81;5057051;28;20044;-58
2022/01/16 00:40:34;;;;;;;99.68;30.25;;;;;;;6.54;100.00;102243.25;5040826;28;20106;-59
2022/01/16 00:43:00;;;;;;;97.65;31.98;;;;;;;6.85;100.00;102235.22;5040597;28;20049;-58
2022/01/16 00:45:29;;;;;;;103.30;33.40;;;;;;;6.87;100.00;102230.59;5074642;28;20036;-59
2022/01/16 00:47:54;;;;;;;101.30;32.08;;;;;;;6.67;100.00;102230.53;5039810;28;20048;-57
2022/01/16 00:50:20;;;;;;;87.67;25.03;;;;;;;6.78;100.00;102228.75;5056645;28;20102;-54
2022/01/16 00:52:45;;;;;;;107.03;31.85;;;;;;;6.68;100.00;102232.22;5023242;28;20118;-58
2022/01/16 00:55:11;;;;;;;123.30;34.27;;;;;;;6.50;100.00;102226.72;5074116;28;20068;-58
2022/01/16 00:57:37;;;;;;;115.22;31.73;;;;;;;6.56;100.00;102212.88;5074066;28;20554;-59
2022/01/16 01:00:04;;;;;;;133.10;33.90;;;;;;;6.22;100.00;102177.78;5074258;28;20385;-58
2022/01/16 01:02:29;;;;;;;142.00;37.30;;;;;;;6.11;100.00;102182.22;5073875;28;20040;-57
2022/01/16 01:04:55;;;;;;;154.40;37.23;;;;;;;5.99;100.00;102177.94;5073843;28;20041;-60
2022/01/16 01:07:21;;;;;;;170.70;41.97;;;;;;;5.83;100.00;102183.72;5056667;28;20267;-58
2022/01/16 01:09:46;;;;;;;149.40;40.40;;;;;;;5.90;100.00;102168.97;5074415;28;20036;-58
2022/01/16 01:12:23;;;;;;;150.03;39.27;;;;;;;6.51;100.00;102169.09;5074128;28;20123;-59
2022/01/16 01:15:08;;;;;;;;;;;;;;;6.61;100.00;102177.91;5056292;28;20737;-58
2022/01/16 01:17:46;;;;;;;116.57;33.83;;;;;;;6.40;100.00;102178.84;5056375;28;20268;-60
2022/01/16 01:20:15;;;;;;;117.75;34.22;;;;;;;6.37;100.00;102187.09;5055896;28;20101;-59
2022/01/16 01:22:41;;;;;;;141.05;37.53;;;;;;;6.44;100.00;102185.56;5073680;28;20459;-58
2022/01/16 01:25:09;;;;;;;124.05;37.13;;;;;;;6.20;100.00;102179.72;5055773;28;20050;-59
2022/01/16 01:27:35;;;;;;;142.68;38.05;;;;;;;6.11;100.00;102170.75;5040178;28;20047;-61
2022/01/16 01:30:09;;;;;;;147.05;39.90;;;;;;;6.08;100.00;102209.06;5057790;28;20037;-59
2022/01/16 01:32:36;;;;;;;139.88;40.45;;;;;;;6.36;100.00;102198.69;5055498;28;20495;-58
2022/01/16 01:35:03;;;;;;;148.60;37.78;;;;;;;6.40;100.00;102181.50;5073267;28;20163;-58
2022/01/16 01:37:28;;;;;;;;;;;;;;;6.49;100.00;102179.03;5073952;28;20032;-59
2022/01/16 01:39:53;;;;;;;149.80;35.47;;;;;;;6.57;100.00;102144.63;5073640;28;19926;-58
2022/01/16 01:42:19;;;;;;;155.07;36.28;;;;;;;6.34;100.00;102112.09;5073151;28;20068;-59
2022/01/16 01:52:58;;;;;;;138.05;36.80;;;;;;;6.61;100.00;102114.13;5073015;28;20109;-58
2022/01/16 01:55:25;;;;;;;114.93;35.28;;;;;;;6.94;100.00;102135.16;5055298;28;20036;-56
2022/01/16 01:57:51;;;;;;;131.43;34.40;;;;;;;6.35;100.00;102145.69;5054839;28;20051;-57
2022/01/16 02:00:18;;;;;;;135.82;35.05;;;;;;;6.90;100.00;102166.50;5054856;28;20043;-57
2022/01/16 02:03:12;;;;;;;149.98;38.50;;;;;;;6.89;100.00;102165.66;5073094;28;20041;-58
2022/01/16 02:05:37;;;;;;;144.05;35.47;;;;;;;6.60;100.00;102168.25;5073153;28;20043;-57
2022/01/16 02:08:05;;;;;;;116.80;35.00;;;;;;;6.38;100.00;102177.31;5073392;28;20032;-56
2022/01/16 02:10:31;;;;;;;142.18;37.75;;;;;;;6.84;100.00;102190.97;5038479;28;20280;-61
2022/01/16 02:13:03;;;;;;;132.00;34.50;;;;;;;6.45;100.00;102189.06;5073029;28;20040;-58
2022/01/16 02:29:56;;;;;;;163.57;42.70;;;;;;;6.23;100.00;102188.28;5057699;28;20044;-59
2022/01/16 02:32:25;;;;;;;162.05;39.90;;;;;;;6.06;100.00;102194.22;5072431;28;20080;-60
2022/01/16 02:34:45;;;;;;;164.88;41.80;;;;;;;5.98;100.00;102197.50;5072461;28;20041;-59
2022/01/16 02:37:13;;;;;;;151.98;41.67;;;;;;;6.20;100.00;102201.84;5072751;28;20106;-59
2022/01/16 02:39:44;;;;;;;162.13;42.67;;;;;;;6.13;100.00;102190.91;5055296;28;20540;-58
2022/01/16 02:42:12;;;;;;;160.48;41.42;;;;;;;6.40;100.00;102186.81;5077076;28;20078;-58
2022/01/16 02:47:17;;;;;;;199.52;46.90;;;;;;;6.32;100.00;102198.09;5059170;28;20056;-57
2022/01/16 02:49:47;;;;;;;187.10;46.45;;;;;;;6.43;100.00;102191.84;5058700;28;20032;-58
2022/01/16 02:52:16;;;;;;;162.10;42.30;;;;;;;6.41;100.00;102167.22;5076413;28;20048;-60
2022/01/16 02:54:44;;;;;;;201.32;46.75;;;;;;;6.56;100.00;102185.47;5076751;28;20044;-59
2022/01/16 02:57:13;;;;;;;190.10;41.08;;;;;;;6.43;100.00;102173.25;5076464;28;20028;-58
2022/01/16 02:59:39;;;;;;;210.27;44.88;;;;;;;6.74;100.00;102167.03;5058043;28;20040;-59
2022/01/16 03:02:05;;;;;;;172.48;39.00;;;;;;;6.64;100.00;102169.66;5076031;28;20040;-59
2022/01/16 03:04:32;;;;;;;180.30;41.60;;;;;;;6.47;100.00;102154.41;5076288;28;20042;-58
2022/01/16 03:07:01;;;;;;;;;;;;;;;6.65;100.00;102146.59;5077200;28;20079;-59
2022/01/16 03:09:36;;;;;;;143.35;34.58;;;;;;;6.47;100.00;102143.78;5058136;28;19912;-60
2022/01/16 03:12:07;;;;;;;137.93;36.85;;;;;;;6.86;100.00;102142.00;5075889;28;20036;-58
2022/01/16 03:14:33;;;;;;;141.07;40.78;;;;;;;6.69;100.00;102129.38;5058639;28;20388;-59
2022/01/16 03:16:58;;;;;;;146.07;40.67;;;;;;;6.70;100.00;102133.72;5042217;28;20044;-58
2022/01/16 03:22:08;;;;;;;154.40;42.70;;;;;;;6.84;100.00;102128.00;5060788;28;20048;-58
2022/01/16 03:24:40;;;;;;;165.90;42.70;;;;;;;6.63;100.00;102129.94;5075853;28;20392;-55
2022/01/16 03:27:14;;;;;;;130.63;40.60;;;;;;;6.70;100.00;102134.59;5058320;28;20075;-59
2022/01/16 03:29:42;;;;;;;139.20;40.78;;;;;;;6.77;100.00;102124.22;5058425;28;20039;-58
2022/01/16 03:32:10;;;;;;;138.50;40.08;;;;;;;6.71;100.00;102136.25;5058495;28;20067;-57
2022/01/16 03:34:36;;;;;;;139.50;40.60;;;;;;;6.73;100.00;102131.66;5076014;28;20059;-58
2022/01/16 03:37:02;;;;;;;100.28;35.13;;;;;;;6.36;100.00;102126.13;5075475;28;20040;-55
2022/01/16 03:39:28;;;;;;;122.28;38.45;;;;;;;6.93;100.00;102128.16;5058293;28;20045;-57
2022/01/16 03:41:55;;;;;;;137.87;44.93;;;;;;;6.49;100.00;102121.38;5057697;28;20052;-58
2022/01/16 03:44:21;;;;;;;129.75;42.03;;;;;;;6.57;100.00;102115.38;5058144;28;20106;-54
2022/01/16 03:46:47;;;;;;;128.70;43.33;;;;;;;6.46;100.00;102111.03;5075665;28;20075;-58
2022/01/16 03:49:16;;;;;;;129.23;42.07;;;;;;;6.27;100.00;102125.09;5057844;28;20441;-59
2022/01/16 03:51:44;;;;;;;133.63;43.35;;;;;;;6.29;100.00;102108.03;5074006;28;20301;-57
2022/01/16 03:54:12;;;;;;;141.55;45.30;;;;;;;6.52;100.00;102112.31;5041467;28;20140;-56
2022/01/16 03:56:38;;;;;;;144.35;45.83;;;;;;;6.70;100.00;102108.00;5057279;28;20098;-58
2022/01/16 03:59:04;;;;;;;152.35;49.80;;;;;;;6.39;100.00;102105.41;5075756;28;20040;-59
2022/01/16 04:01:30;;;;;;;144.82;47.67;;;;;;;6.87;100.00;102101.16;5058184;28;20043;-58
2022/01/16 04:03:56;;;;;;;147.70;47.93;;;;;;;6.45;100.00;102112.00;5042547;28;20049;-59
2022/01/16 04:06:23;;;;;;;149.18;46.05;;;;;;;6.45;100.00;102110.16;5076574;28;20277;-59
2022/01/16 04:08:49;;;;;;;;;;;;;;;6.37;100.00;102106.53;5057801;28;20059;-58
2022/01/16 04:11:15;;;;;;;140.52;47.20;;;;;;;6.47;100.00;102095.94;5057945;28;19912;-58
2022/01/16 04:13:49;;;;;;;130.50;45.45;;;;;;;6.41;100.00;102102.63;5074998;28;20392;-59
2022/01/16 04:16:15;;;;;;;152.73;51.33;;;;;;;6.40;100.00;102104.44;5075689;28;20085;-59
2022/01/16 04:18:40;;;;;;;157.13;47.35;;;;;;;6.42;100.00;102107.78;5057555;28;20123;-58
2022/01/16 04:21:06;;;;;;;138.63;47.30;;;;;;;6.44;100.00;102112.97;5074674;28;20028;-57
2022/01/16 04:23:31;;;;;;;159.37;47.07;;;;;;;6.64;100.00;102100.56;5075347;28;20369;-58
2022/01/16 04:25:57;;;;;;;168.20;53.63;;;;;;;6.50;100.00;102093.00;5040490;28;20043;-59
2022/01/16 04:28:24;;;;;;;157.18;53.67;;;;;;;6.80;100.00;102101.84;5040293;28;20086;-59
2022/01/16 04:30:51;;;;;;;157.95;54.05;;;;;;;6.53;100.00;102100.69;5040884;28;20051;-58
2022/01/16 04:33:17;;;;;;;143.73;46.35;;;;;;;6.53;100.00;102100.69;5074357;28;20060;-59
2022/01/16 04:35:42;;;;;;;154.57;54.05;;;;;;;6.55;100.00;102099.56;5074290;28;20094;-59
2022/01/16 04:38:08;;;;;;;144.70;52.03;;;;;;;6.80;100.00;102101.84;5074327;28;20062;-60
2022/01/16 04:40:42;;;;;;;175.83;57.77;;;;;;;6.68;100.00;102104.59;5075120;28;20368;-58
2022/01/16 04:45:55;;;;;;;158.57;55.93;;;;;;;6.71;100.00;102099.03;5074624;28;20067;-57
2022/01/16 04:48:21;;;;;;;162.65;50.92;;;;;;;6.60;100.00;102085.88;5056885;28;20061;-59
2022/01/16 04:50:46;;;;;;;162.43;53.60;;;;;;;6.80;100.00;102091.19;5075022;28;20043;-56
2022/01/16 04:53:12;;;;;;;182.23;57.93;;;;;;;6.55;100.00;102098.72;5056927;28;20544;-58
2022/01/16 04:55:37;;;;;;;148.10;49.17;;;;;;;6.68;100.00;102091.31;5056639;28;20090;-57
2022/01/16 04:58:03;;;;;;;160.83;54.90;;;;;;;6.67;100.00;102088.81;5056465;28;20420;-58
2022/01/16 05:00:28;;;;;;;164.50;52.43;;;;;;;6.67;100.00;102092.28;5056686;28;20032;-58
2022/01/16 05:02:54;;;;;;;144.23;49.23;;;;;;;6.57;100.00;102094.13;5073579;28;20103;-58
2022/01/16 05:05:19;;;;;;;147.23;49.40;;;;;;;6.66;100.00;102095.13;5074207;28;20426;-59
2022/01/16 05:07:45;;;;;;;169.77;49.03;;;;;;;6.87;100.00;102090.50;5039352;28;20072;-57
2022/01/16 05:10:11;;;;;;;157.50;56.53;;;;;;;6.94;100.00;102068.66;5055791;28;20138;-57
2022/01/16 05:12:39;;;;;;;170.45;58.58;;;;;;;6.54;100.00;102081.09;5074234;28;20032;-59
2022/01/16 05:17:51;;;;;;;160.38;56.40;;;;;;;6.66;100.00;102085.31;5073984;28;20041;-58
2022/01/16 05:20:16;;;;;;;188.67;64.03;;;;;;;6.73;100.00;102077.63;5075948;28;20052;-61
2022/01/16 05:22:42;;;;;;;210.07;72.30;;;;;;;6.62;100.00;102085.75;5075049;28;20257;-58
2022/01/16 05:25:08;;;;;;;178.10;66.97;;;;;;;6.82;100.00;102078.59;5073436;28;20488;-59
2022/01/16 05:27:34;;;;;;;172.02;59.92;;;;;;;6.76;100.00;102089.81;5054778;28;20048;-57
2022/01/16 05:30:00;;;;;;;148.48;58.85;;;;;;;6.82;100.00;102084.78;5072946;28;20037;-60
2022/01/16 05:32:26;;;;;;;148.65;52.78;;;;;;;7.07;100.00;102089.66;5054529;28;20056;-59
2022/01/16 05:34:51;;;;;;;148.53;48.80;;;;;;;7.34;100.00;102082.75;5073076;28;20480;-59
2022/01/16 05:37:17;;;;;;;133.50;47.80;;;;;;;7.35;100.00;102087.09;5072581;28;20068;-57
2022/01/16 05:39:44;;;;;;;144.73;51.47;;;;;;;7.18;100.00;102094.84;5072543;28;20072;-58
2022/01/16 05:42:12;;;;;;;141.98;50.03;;;;;;;7.21;100.00;102089.22;5055108;28;20040;-59
2022/01/16 05:44:38;;;;;;;140.90;49.67;;;;;;;7.24;100.00;102088.09;5074138;28;20040;-59
2022/01/16 05:47:05;;;;;;;133.18;46.72;;;;;;;7.13;100.00;102087.25;5055372;28;20464;-57
2022/01/16 05:49:30;;;;;;;127.05;45.67;;;;;;;7.26;100.00;102086.97;5072897;28;20037;-58
2022/01/16 05:51:56;;;;;;;136.35;49.22;;;;;;;7.13;100.00;102079.28;5054527;28;20052;-60
2022/01/16 05:54:21;;;;;;;130.13;48.35;;;;;;;7.11;100.00;102094.56;5054801;28;20529;-59
2022/01/16 05:56:47;;;;;;;119.82;45.95;;;;;;;7.13;100.00;102083.75;5074288;28;20082;-58
2022/01/16 05:59:13;;;;;;;115.37;45.17;;;;;;;7.08;100.00;102078.03;5072843;28;20500;-59
2022/01/16 06:01:38;;;;;;;123.55;44.60;;;;;;;7.14;100.00;102077.44;5054707;28;20044;-58
2022/01/16 06:04:04;;;;;;;129.50;48.70;;;;;;;6.98;100.00;102078.88;5055189;28;20079;-58
2022/01/16 06:06:29;;;;;;;98.15;36.70;;;;;;;6.79;100.00;102081.53;5072335;28;20056;-59
2022/01/16 06:08:55;;;;;;;117.93;48.60;;;;;;;7.22;100.00;102080.25;5072827;28;20449;-57
2022/01/16 06:11:20;;;;;;;129.23;46.33;;;;;;;7.32;100.00;102078.41;5072764;28;20445;-59
2022/01/16 06:13:46;;;;;;;113.30;44.00;;;;;;;7.11;100.00;102078.59;5072799;28;20048;-58
2022/01/16 06:16:12;;;;;;;125.22;47.95;;;;;;;7.39;100.00;102075.19;5040646;28;20044;-57
2022/01/16 06:18:37;;;;;;;121.20;44.22;;;;;;;7.11;100.00;102088.38;5076595;28;20078;-60
2022/01/16 06:21:03;;;;;;;124.03;46.60;;;;;;;7.17;100.00;102093.16;5076523;28;20490;-60
2022/01/16 06:23:28;;;;;;;120.10;46.40;;;;;;;7.10;100.00;102090.22;5075996;28;20040;-59
2022/01/16 06:25:54;;;;;;;121.77;45.80;;;;;;;7.22;100.00;102090.03;5076253;28;20093;-59
2022/01/16 06:28:24;;;;;;;129.35;45.40;;;;;;;7.11;100.00;102085.72;5075911;28;20041;-59
2022/01/16 06:30:49;;;;;;;119.43;46.78;;;;;;;6.93;100.00;102089.13;5075833;28;20037;-57
2022/01/16 06:33:17;;;;;;;112.78;46.50;;;;;;;7.21;100.00;102091.88;5054816;28;20059;-58
2022/01/16 06:35:42;;;;;;;116.22;45.55;;;;;;;7.24;100.00;102088.94;5039108;28;20560;-59
2022/01/16 06:38:08;;;;;;;116.07;45.60;;;;;;;7.17;100.00;102086.00;5057487;28;20075;-58
2022/01/16 06:40:34;;;;;;;113.68;45.25;;;;;;;7.34;100.00;102099.56;5056595;28;20033;-59
2022/01/16 06:43:00;;;;;;;106.13;44.30;;;;;;;7.40;100.00;102100.81;5055835;28;20033;-58
2022/01/16 06:45:26;;;;;;;111.15;46.20;;;;;;;7.50;100.00;102096.31;5055850;28;20091;-58
2022/01/16 06:47:51;;;;;;;104.40;44.13;;;;;;;7.59;100.00;102100.75;5055106;28;20041;-58
2022/01/16 06:50:18;;;;;;;112.25;46.05;;;;;;;7.34;100.00;102104.03;5054757;28;20116;-59
2022/01/16 06:52:43;;;;;;;109.00;44.75;;;;;;;7.49;100.00;102093.78;5056536;28;20044;-57
2022/01/16 06:55:09;;;;;;;104.30;42.85;;;;;;;7.81;100.00;102106.72;5055420;28;20033;-60
2022/01/16 06:57:35;;;;;;;103.80;43.90;;;;;;;7.74;100.00;102109.13;5055783;28;20096;-58
2022/01/16 07:00:05;;;;;;;113.30;43.58;;;;;;;7.55;100.00;102111.84;5055686;28;20112;-57
2022/01/16 07:02:31;;;;;;;96.05;42.40;;;;;;;7.62;100.00;102133.41;5055779;28;20450;-58
2022/01/16 07:04:56;;;;;;;101.67;42.97;;;;;;;7.40;100.00;102122.13;5054734;28;20059;-56
2022/01/16 07:07:22;;;;;;;99.20;43.60;;;;;;;7.64;100.00;102120.81;5037693;28;20040;-59
2022/01/16 07:09:47;;;;;;;101.33;41.87;;;;;;;7.58;100.00;102133.69;5055041;28;20128;-58
2022/01/16 07:12:13;;;;;;;100.83;41.43;;;;;;;7.66;100.00;102124.16;5055290;28;20377;-58
2022/01/16 07:14:38;;;;;;;95.05;38.95;;;;;;;7.77;100.00;102142.59;5054718;28;20171;-58
2022/01/16 07:17:04;;;;;;;97.73;40.23;;;;;;;7.71;100.00;102136.03;5055279;28;20056;-59
2022/01/16 07:19:30;;;;;;;95.93;40.20;;;;;;;7.73;100.00;102146.56;5037686;28;20485;-58
2022/01/16 07:21:55;;;;;;;94.80;39.15;;;;;;;7.88;100.00;102150.44;5038364;28;20048;-58
2022/01/16 07:24:21;;;;;;;90.77;38.03;;;;;;;7.51;100.00;102169.84;5055167;28;20051;-58
2022/01/16 07:26:47;;;;;;;92.60;39.33;;;;;;;7.98;100.00;102163.72;5053994;28;20025;-59
2022/01/16 07:29:12;;;;;;;93.07;38.80;;;;;;;7.72;100.00;102171.50;5054048;28;20401;-60
2022/01/16 07:31:41;;;;;;;89.47;37.43;;;;;;;7.64;100.00;102182.03;5054186;28;20049;-59
2022/01/16 07:34:07;;;;;;;99.40;41.67;;;;;;;7.99;100.00;102175.22;5054898;28;20269;-59
2022/01/16 07:36:33;;;;;;;;;;;;;;;7.83;100.00;102175.81;5054586;28;20076;-59
2022/01/16 07:38:58;;;;;;;90.20;38.97;;;;;;;8.27;100.00;102175.25;5053447;28;20403;-59
2022/01/16 07:41:24;;;;;;;86.88;36.83;;;;;;;8.22;100.00;102183.69;5054850;28;20464;-56
2022/01/16 07:43:50;;;;;;;86.37;38.13;;;;;;;8.30;100.00;102180.28;5054667;28;20033;-57
2022/01/16 07:46:19;;;;;;;82.13;34.35;;;;;;;7.99;100.00;102175.22;5053307;28;20045;-59
2022/01/16 07:48:44;;;;;;;77.88;33.28;;;;;;;8.06;100.00;102167.47;5054113;28;20047;-57
2022/01/16 07:51:10;;;;;;;83.45;37.53;;;;;;;8.29;100.00;102183.94;5055056;28;20033;-59
2022/01/16 07:53:37;;;;;;;77.43;34.08;;;;;;;8.59;100.00;102174.84;5056698;28;20100;-59
2022/01/16 07:56:03;;;;;;;75.38;32.92;;;;;;;8.66;100.00;102182.25;5057500;28;20049;-60
2022/01/16 07:58:29;;;;;;;72.63;30.13;;;;;;;8.40;100.00;102197.06;5054258;28;20033;-58
2022/01/16 08:00:56;;;;;;;75.78;33.45;;;;;;;8.30;100.00;102202.44;5053058;28;20041;-58
2022/01/16 08:03:23;;;;;;;79.35;32.90;;;;;;;8.24;100.00;102196.84;5055010;28;20048;-60
2022/01/16 08:05:48;;;;;;;;;;;;;;;8.30;100.00;102197.13;5054530;28;20037;-56
2022/01/16 08:08:14;;;;;;;73.70;31.30;;;;;;;8.17;100.00;102205.44;5053393;28;20329;-58
2022/01/16 08:10:40;;;;;;;64.85;29.55;;;;;;;8.43;100.00;102201.28;5054601;28;20087;-58
2022/01/16 08:13:05;;;;;;;68.43;32.15;;;;;;;8.25;100.00;102201.19;5053733;28;20115;-59
2022/01/16 08:15:31;;;;;;;64.13;28.07;;;;;;;8.33;100.00;102198.66;5036174;28;20045;-58
2022/01/16 08:17:57;;;;;;;64.70;30.80;;;;;;;8.47;100.00;102200.00;5036004;28;20769;-56
2022/01/16 08:20:23;;;;;;;60.47;25.65;;;;;;;8.43;100.00;102194.13;5036989;28;20064;-58
2022/01/16 08:22:48;;;;;;;64.45;28.42;;;;;;;8.43;100.00;102185.28;5053358;28;20033;-58
2022/01/16 08:25:15;;;;;;;60.85;26.65;;;;;;;8.44;100.00;102185.13;5052135;28;20481;-58
2022/01/16 08:27:41;;;;;;;56.92;26.10;;;;;;;8.37;100.00;102181.38;5052793;28;20469;-59
2022/01/16 08:30:08;;;;;;;61.30;27.17;;;;;;;8.56;100.00;102171.63;5035547;28;20041;-57
2022/01/16 08:32:34;;;;;;;55.97;25.50;;;;;;;8.47;100.00;102176.81;5067021;28;20556;-58
2022/01/16 08:35:00;;;;;;;;;;;;;;;8.50;100.00;102189.06;5055785;28;20036;-57
2022/01/16 08:37:25;;;;;;;60.57;28.00;;;;;;;8.74;100.00;102180.50;5054816;28;20012;-58
2022/01/16 08:39:51;;;;;;;66.30;29.27;;;;;;;8.69;100.00;102190.78;5055215;28;20036;-59
2022/01/16 08:42:17;;;;;;;62.43;26.60;;;;;;;8.57;100.00;102191.97;5073325;28;20037;-58
2022/01/16 08:44:42;;;;;;;60.37;24.83;;;;;;;8.51;100.00;102197.88;5055630;28;20273;-59
2022/01/16 08:47:09;;;;;;;51.08;24.25;;;;;;;8.85;100.00;102194.63;5039442;28;20040;-58
2022/01/16 08:49:35;;;;;;;61.33;28.30;;;;;;;8.86;100.00;102197.13;5022204;28;20051;-58
2022/01/16 08:52:01;;;;;;;57.38;25.35;;;;;;;8.66;100.00;102209.75;5073341;28;20376;-59
2022/01/16 08:54:27;;;;;;;66.35;28.33;;;;;;;9.04;100.00;102215.84;5073037;28;20090;-59
2022/01/16 08:56:52;;;;;;;63.33;27.47;;;;;;;8.92;100.00;102224.22;5038579;28;20045;-58
2022/01/16 08:59:18;;;;;;;55.65;24.17;;;;;;;8.68;100.00;102221.09;5073606;28;20270;-59
2022/01/16 09:01:43;;;;;;;65.70;28.43;;;;;;;8.80;100.00;102234.25;5055312;28;20136;-59
2022/01/16 09:04:09;;;;;;;65.77;27.77;;;;;;;8.87;100.00;102235.31;5055796;28;20052;-59
2022/01/16 09:06:36;;;;;;;65.30;27.60;;;;;;;8.98;100.00;102223.59;5056222;28;20041;-58
2022/01/16 09:09:01;;;;;;;;;;;;;;;9.02;100.00;102230.31;5040212;28;20033;-60
2022/01/16 09:11:27;;;;;;;65.30;27.43;;;;;;;9.15;100.00;102227.28;5057723;28;19919;-62
2022/01/16 09:13:53;;;;;;;77.47;27.83;;;;;;;9.11;100.00;102228.56;5025782;28;20461;-60
2022/01/16 09:16:20;;;;;;;71.63;31.40;;;;;;;8.87;100.00;102222.00;5039838;28;20045;-59
2022/01/16 09:18:47;;;;;;;75.63;30.35;;;;;;;9.01;100.00;102223.28;5073076;28;20052;-61
2022/01/16 09:21:16;;;;;;;71.43;29.77;;;;;;;9.31;100.00;102226.59;5072517;28;20036;-57
2022/01/16 09:23:44;;;;;;;78.95;32.53;;;;;;;9.01;100.00;102237.50;5072481;28;20036;-59
2022/01/16 09:26:09;;;;;;;84.03;31.10;;;;;;;9.30;100.00;102243.59;5054449;28;20048;-60
2022/01/16 09:28:35;;;;;;;76.23;31.43;;;;;;;9.22;100.00;102246.19;5055027;28;20040;-58
2022/01/16 09:31:00;;;;;;;73.87;29.40;;;;;;;9.17;100.00;102246.63;5038303;28;20123;-59
2022/01/16 09:33:26;;;;;;;74.33;30.20;;;;;;;9.04;100.00;102247.84;5072111;28;20036;-58
2022/01/16 09:35:51;;;;;;;85.57;31.73;;;;;;;9.25;100.00;102257.41;5037648;28;20126;-59
2022/01/16 09:38:18;;;;;;;83.13;32.13;;;;;;;8.87;100.00;102267.34;5054214;28;20064;-57
2022/01/16 09:40:44;;;;;;;;;;;;;;;8.79;100.00;102267.25;5038101;28;20290;-58
2022/01/16 09:43:10;;;;;;;79.32;32.60;;;;;;;9.10;100.00;102266.94;5054269;28;19923;-60
2022/01/16 09:45:36;;;;;;;87.45;32.30;;;;;;;9.36;100.00;102267.03;5037924;28;20036;-59
2022/01/16 09:48:02;;;;;;;75.45;30.38;;;;;;;9.09;100.00;102271.41;5071785;28;20120;-59
2022/01/16 09:50:28;;;;;;;;;;;;;;;9.42;100.00;102268.22;5036855;28;20094;-58
2022/01/16 09:52:54;;;;;;;84.43;32.23;;;;;;;8.94;100.00;102267.59;5071956;28;19916;-58
2022/01/16 09:55:20;;;;;;;86.43;32.55;;;;;;;8.92;100.00;102270.38;5054653;28;20040;-59
2022/01/16 09:57:46;;;;;;;93.82;33.92;;;;;;;9.20;100.00;102267.69;5037825;28;20087;-59
2022/01/16 10:00:15;;;;;;;85.63;31.33;;;;;;;9.07;100.00;102280.56;5037215;28;20056;-57
2022/01/16 10:02:44;;;;;;;97.38;36.38;;;;;;;9.24;100.00;102282.44;5072183;28;20066;-56
2022/01/16 10:05:32;;;;;;;95.30;34.97;;;;;;;9.31;100.00;102287.97;5054250;28;20140;-60
2022/01/16 10:08:01;;;;;;;95.13;36.67;;;;;;;9.64;100.00;102284.78;5037944;28;20032;-59
2022/01/16 10:10:30;;;;;;;99.10;35.35;;;;;;;9.07;100.00;102285.91;5053341;28;20032;-57
2022/01/16 10:13:05;;;;;;;112.75;38.13;;;;;;;9.04;100.00;102290.56;5071415;28;20119;-58
2022/01/16 10:15:31;;;;;;;100.32;35.85;;;;;;;9.08;100.00;102301.75;5038587;28;20051;-58
2022/01/16 10:17:59;;;;;;;110.50;37.00;;;;;;;9.53;100.00;102294.72;5054156;28;20036;-58
2022/01/16 10:20:27;;;;;;;105.50;38.45;;;;;;;9.79;100.00;102299.28;5053305;28;20044;-60
2022/01/16 10:22:58;;;;;;;110.00;39.47;;;;;;;9.43;100.00;102313.50;5071437;28;20503;-58
2022/01/16 10:25:43;;;;;;;113.45;39.35;;;;;;;9.36;100.00;102308.91;5070701;28;20166;-56
2022/01/16 10:28:21;;;;;;;102.78;37.13;;;;;;;9.44;100.00;102306.31;5071878;28;20124;-58
2022/01/16 10:30:50;;;;;;;108.55;36.55;;;;;;;9.54;100.00;102315.09;5072951;28;20044;-56
2022/01/16 10:33:22;;;;;;;102.23;37.40;;;;;;;9.35;100.00;102315.22;5016926;28;1103086;-56
2022/01/16 10:35:50;;;;;;;109.60;38.47;;;;;;;9.33;100.00;102316.22;5072309;28;20036;-60
2022/01/16 10:38:28;;;;;;;107.10;37.22;;;;;;;9.55;100.00;102303.41;5054179;28;20044;-56
2022/01/16 10:40:56;;;;;;;107.10;36.28;;;;;;;9.71;100.00;102316.09;5054916;28;20032;-56
2022/01/16 10:43:39;;;;;;;107.35;38.30;;;;;;;9.31;100.00;102326.22;5071875;28;20044;-54
2022/01/16 10:46:05;;;;;;;104.93;38.42;;;;;;;9.59;100.00;102320.81;5072339;28;20449;-57
2022/01/16 10:48:32;;;;;;;110.22;39.08;;;;;;;10.17;100.00;102323.13;5072111;28;20040;-60
2022/01/16 10:50:58;;;;;;;119.80;38.08;;;;;;;9.64;100.00;102322.19;5072260;28;20036;-59
2022/01/16 10:53:26;;;;;;;94.90;34.95;;;;;;;9.33;100.00;102326.91;5071980;28;20040;-59
2022/01/16 10:55:54;;;;;;;114.38;40.00;;;;;;;9.49;100.00;102317.38;5072190;28;20051;-58
2022/01/16 10:58:21;;;;;;;105.13;35.83;;;;;;;9.86;100.00;102327.06;5037363;28;20472;-55
2022/01/16 11:00:54;;;;;;;104.18;35.10;;;;;;;9.59;100.00;102331.50;5037842;28;20032;-59
2022/01/16 11:03:22;;;;;;;99.45;35.75;;;;;;;9.48;100.00;102323.72;5058142;28;20051;-58
2022/01/16 11:05:49;;;;;;;115.80;37.08;;;;;;;9.60;100.00;102327.84;5057979;28;20039;-58
2022/01/16 11:08:18;;;;;;;97.65;32.83;;;;;;;9.64;100.00;102324.84;5075400;28;20060;-57
2022/01/16 11:10:49;;;;;;;127.13;38.58;;;;;;;9.94;100.00;102322.81;5057532;28;20032;-54
2022/01/16 11:13:20;;;;;;;111.55;36.50;;;;;;;9.49;100.00;102322.72;5076212;28;20469;-58
2022/01/16 11:15:49;;;;;;;97.15;30.73;;;;;;;9.31;100.00;102334.22;5057861;28;20083;-56
2022/01/16 11:18:16;;;;;;;109.97;36.80;;;;;;;9.43;100.00;102336.66;5058130;28;20112;-58
2022/01/16 11:20:51;;;;;;;116.53;37.78;;;;;;;9.52;100.00;102330.44;5057768;28;20083;-58
2022/01/16 11:26:10;;;;;;;113.85;37.25;;;;;;;9.31;100.00;102336.91;5076683;28;20120;-59
2022/01/16 11:28:37;;;;;;;121.15;36.38;;;;;;;9.51;100.00;102342.13;5076091;28;20033;-58
2022/01/16 11:31:06;;;;;;;112.28;34.47;;;;;;;9.40;100.00;102348.50;5057380;28;20047;-57
2022/01/16 11:33:33;;;;;;;109.53;36.00;;;;;;;9.41;100.00;102334.16;5075899;28;20036;-58
2022/01/16 11:36:02;;;;;;;126.68;38.70;;;;;;;9.03;100.00;102336.91;5057042;28;20032;-59
2022/01/16 11:38:31;;;;;;;123.50;37.97;;;;;;;9.57;100.00;102330.81;5075127;28;20103;-57
2022/01/16 11:41:02;;;;;;;119.97;35.75;;;;;;;9.49;100.00;102330.75;5074721;28;20392;-57
2022/01/16 11:43:36;;;;;;;131.68;40.63;;;;;;;9.73;100.00;102338.13;5057337;28;20433;-57
2022/01/16 11:46:12;;;;;;;122.10;38.88;;;;;;;9.83;100.00;102340.72;5056952;28;20052;-60